Time;durP1;ratioP1;P1;durP2;ratioP2;P2;SDS_P1;SDS_P2;PMS_P1;PMS_P2;Temp;Humidity;BMP_temperature;BMP_pressure;BME280_temperature;BME280_humidity;BME280_pressure;Samples;Min_cycle;Max_cycle;Signal;HPM_P1;HPM_P2
2022/03/19 00:01:51;;;;;;;35.25;9.98;;;;;;;-0.30;100.00;104359.25;4993648;28;20051;-72
2022/03/19 00:04:16;;;;;;;33.65;10.48;;;;;;;-0.29;100.00;104359.22;5009837;28;20045;-73
2022/03/19 00:06:46;;;;;;;31.88;11.80;;;;;;;-0.17;100.00;104383.72;5028206;28;20390;-72
2022/03/19 00:09:11;;;;;;;25.67;10.57;;;;;;;-0.12;100.00;104376.69;5027936;28;20400;-72
2022/03/19 00:11:37;;;;;;;29.65;10.25;;;;;;;-0.14;100.00;104376.72;5028202;28;20029;-72
2022/03/19 00:14:03;;;;;;;27.60;9.52;;;;;;;-0.14;100.00;104379.34;5027972;28;20149;-72
2022/03/19 00:16:29;;;;;;;26.17;9.93;;;;;;;-0.25;100.00;104371.50;5028069;28;20029;-72
2022/03/19 00:18:54;;;;;;;27.65;11.20;;;;;;;-0.30;100.00;104383.75;5027043;28;20797;-72
2022/03/19 00:21:19;;;;;;;26.27;9.75;;;;;;;-0.30;100.00;104393.41;5027978;28;20030;-72
2022/03/19 00:23:46;;;;;;;27.48;10.70;;;;;;;-0.24;100.00;104396.00;4993828;28;20045;-72
2022/03/19 00:26:12;;;;;;;32.22;9.55;;;;;;;-0.09;100.00;104392.47;5027997;28;20072;-72
2022/03/19 00:28:38;;;;;;;24.08;8.35;;;;;;;-0.01;100.00;104401.19;5009953;28;20426;-71
2022/03/19 00:31:04;;;;;;;19.92;7.80;;;;;;;-0.05;100.00;104418.75;4994013;28;20112;-73
2022/03/19 00:33:30;;;;;;;23.17;7.93;;;;;;;-0.09;100.00;104405.63;5009992;28;20684;-73
2022/03/19 00:35:55;;;;;;;30.27;8.85;;;;;;;-0.05;100.00;104396.81;5009938;28;20040;-73
2022/03/19 00:38:20;;;;;;;22.48;8.38;;;;;;;-0.11;100.00;104395.09;5009938;28;20029;-72
2022/03/19 00:40:47;;;;;;;22.67;9.60;;;;;;;-0.17;100.00;104394.22;5027520;28;20025;-72
2022/03/19 00:43:13;;;;;;;31.38;8.60;;;;;;;-0.18;100.00;104393.38;5011822;28;20291;-72
2022/03/19 00:45:38;;;;;;;21.98;8.80;;;;;;;-0.10;100.00;104395.97;5027473;28;20034;-72
2022/03/19 00:48:04;;;;;;;28.63;9.00;;;;;;;-0.12;100.00;104384.59;5027426;28;20040;-73
2022/03/19 00:50:30;;;;;;;26.65;10.80;;;;;;;-0.13;100.00;104395.97;5009496;28;20037;-72
2022/03/19 00:52:55;;;;;;;20.48;8.30;;;;;;;-0.16;100.00;104401.25;5027416;28;20084;-72
2022/03/19 00:55:20;;;;;;;20.23;7.73;;;;;;;-0.19;100.00;104388.97;5027241;28;20045;-73
2022/03/19 00:57:47;;;;;;;22.10;7.13;;;;;;;-0.18;100.00;104390.75;4993349;28;20388;-72
2022/03/19 01:00:15;;;;;;;27.45;8.05;;;;;;;-0.25;100.00;104392.50;5027198;28;20049;-72
2022/03/19 01:02:42;;;;;;;19.50;7.40;;;;;;;-0.18;100.00;104390.75;4993454;28;20121;-72
2022/03/19 01:05:09;;;;;;;19.95;7.45;;;;;;;-0.22;100.00;104399.50;5008939;28;20033;-72
2022/03/19 01:07:49;;;;;;;19.83;6.95;;;;;;;-0.33;100.00;104401.25;5009797;28;20127;-72
2022/03/19 01:10:21;;;;;;;20.45;7.32;;;;;;;-0.44;100.00;104396.91;5027001;28;20029;-73
2022/03/19 01:12:48;;;;;;;31.83;7.55;;;;;;;-0.49;100.00;104396.03;5009642;28;20065;-72
2022/03/19 01:15:15;;;;;;;19.88;8.02;;;;;;;-0.54;100.00;104383.78;5009110;28;20044;-72
2022/03/19 01:17:41;;;;;;;26.38;7.30;;;;;;;-0.55;100.00;104388.16;5027124;28;20577;-72
2022/03/19 01:20:10;;;;;;;27.45;8.98;;;;;;;-0.57;100.00;104389.91;5026752;28;20518;-72
2022/03/19 01:22:39;;;;;;;21.88;6.07;;;;;;;-0.53;100.00;104391.66;5009452;28;20140;-72
2022/03/19 01:25:05;;;;;;;19.02;6.78;;;;;;;-0.45;100.00;104394.28;5026829;28;20025;-72
2022/03/19 01:27:32;;;;;;;25.55;7.43;;;;;;;-0.38;100.00;104397.78;5009331;28;20132;-72
2022/03/19 01:29:58;;;;;;;30.42;9.48;;;;;;;-0.33;100.00;104399.53;5026640;28;20256;-72
2022/03/19 01:32:23;;;;;;;18.83;7.85;;;;;;;-0.30;100.00;104398.66;5009297;28;20072;-72
2022/03/19 01:34:48;;;;;;;19.00;7.00;;;;;;;-0.30;100.00;104391.63;4992818;28;20026;-72
2022/03/19 01:37:14;;;;;;;18.30;7.53;;;;;;;-0.30;100.00;104386.38;4992727;28;20037;-72
2022/03/19 01:39:39;;;;;;;22.13;7.18;;;;;;;-0.32;100.00;104389.91;5026641;28;20041;-72
2022/03/19 01:42:05;;;;;;;20.17;6.30;;;;;;;-0.44;100.00;104394.28;4992710;28;20033;-72
2022/03/19 01:44:30;;;;;;;22.15;6.90;;;;;;;-0.45;100.00;104381.16;5025982;28;20037;-72
2022/03/19 01:47:10;;;;;;;20.05;5.95;;;;;;;-0.49;100.00;104380.28;5008886;28;20087;-71
2022/03/19 01:49:37;;;;;;;22.33;6.15;;;;;;;-0.49;100.00;104382.06;5026046;28;20041;-73
2022/03/19 01:52:03;;;;;;;16.27;6.20;;;;;;;-0.50;100.00;104381.16;5008696;28;20025;-72
2022/03/19 01:54:32;;;;;;;22.52;7.25;;;;;;;-0.45;100.00;104368.88;5008338;28;20041;-72
2022/03/19 01:56:58;;;;;;;23.83;8.75;;;;;;;-0.35;100.00;104387.25;5008755;28;20557;-71
2022/03/19 01:59:26;;;;;;;17.92;6.60;;;;;;;-0.38;100.00;104375.00;4991738;28;20039;-72
2022/03/19 02:01:54;;;;;;;17.75;6.72;;;;;;;-0.41;100.00;104379.41;5008652;28;20026;-72
2022/03/19 02:04:21;;;;;;;19.02;6.05;;;;;;;-0.36;100.00;104380.25;5007591;28;20199;-72
2022/03/19 02:06:47;;;;;;;17.80;6.20;;;;;;;-0.36;100.00;104382.88;5008346;28;20021;-72
2022/03/19 02:09:13;;;;;;;29.40;7.85;;;;;;;-0.47;100.00;104375.03;5008129;28;20040;-72
2022/03/19 02:11:38;;;;;;;25.65;8.07;;;;;;;-0.51;100.00;104378.56;5026083;28;20087;-72
2022/03/19 02:14:04;;;;;;;28.38;7.20;;;;;;;-0.58;100.00;104372.44;5026523;28;20065;-72
2022/03/19 02:16:29;;;;;;;18.73;7.18;;;;;;;-0.62;100.00;104370.66;5008420;28;20025;-72
2022/03/19 02:19:01;;;;;;;18.83;5.95;;;;;;;-0.70;100.00;104372.44;5008156;28;20128;-72
2022/03/19 02:21:42;;;;;;;21.92;6.00;;;;;;;-0.89;100.00;104367.19;5025826;28;20029;-72
2022/03/19 02:26:52;;;;;;;17.80;7.03;;;;;;;-0.87;100.00;104378.56;5025747;28;20056;-72
2022/03/19 02:29:17;;;;;;;26.48;9.23;;;;;;;-0.77;100.00;104373.28;5007956;28;20479;-72
2022/03/19 02:31:46;;;;;;;25.15;6.97;;;;;;;-0.71;100.00;104375.91;5008218;28;20045;-72
2022/03/19 02:34:12;;;;;;;22.15;7.10;;;;;;;-0.82;100.00;104375.03;5025555;28;20075;-72
2022/03/19 02:36:40;;;;;;;20.02;5.97;;;;;;;-0.84;100.00;104377.69;4991761;28;20037;-72
2022/03/19 02:39:20;;;;;;;24.42;6.55;;;;;;;-0.90;100.00;104375.91;4991575;28;20055;-72
2022/03/19 02:41:48;;;;;;;25.45;7.43;;;;;;;-0.99;100.00;104368.03;5025344;28;20036;-72
2022/03/19 02:44:16;;;;;;;17.70;7.30;;;;;;;-0.98;100.00;104366.31;5031417;28;20052;-72
2022/03/19 02:46:44;;;;;;;21.23;7.13;;;;;;;-0.99;100.00;104368.03;5015040;28;20124;-72
2022/03/19 02:49:11;;;;;;;18.30;6.63;;;;;;;-1.04;100.00;104366.28;5049234;28;20052;-72
2022/03/19 02:51:38;;;;;;;20.00;8.27;;;;;;;-0.97;100.00;104370.69;5049318;28;20071;-72
2022/03/19 02:54:05;;;;;;;26.05;8.32;;;;;;;-0.98;100.00;104361.94;5037376;28;20053;-72
2022/03/19 02:56:36;;;;;;;26.35;6.90;;;;;;;-0.93;100.00;104354.94;5010646;28;20116;-72
2022/03/19 02:59:17;;;;;;;17.25;6.75;;;;;;;-0.91;100.00;104371.56;4995315;28;20045;-72
2022/03/19 03:01:44;;;;;;;24.27;8.45;;;;;;;-0.93;100.00;104354.06;4995312;28;20052;-72
2022/03/19 03:04:09;;;;;;;24.02;8.40;;;;;;;-0.86;100.00;104356.69;4994764;28;20986;-72
2022/03/19 03:06:36;;;;;;;26.50;9.17;;;;;;;-0.85;100.00;104368.91;4995098;28;20037;-71
2022/03/19 03:09:03;;;;;;;31.40;11.10;;;;;;;-0.87;100.00;104362.81;5011209;28;20422;-72
2022/03/19 03:11:29;;;;;;;18.83;8.52;;;;;;;-0.89;100.00;104364.56;5011517;28;20041;-72
2022/03/19 03:13:54;;;;;;;23.85;10.02;;;;;;;-0.92;100.00;104356.66;5010923;28;20017;-71
2022/03/19 03:16:20;;;;;;;38.63;9.52;;;;;;;-0.89;100.00;104363.66;5011539;28;20514;-71
2022/03/19 03:18:46;;;;;;;24.85;8.30;;;;;;;-0.87;100.00;104357.56;4994700;28;20140;-72
2022/03/19 03:21:12;;;;;;;30.15;11.15;;;;;;;-0.86;100.00;104347.94;5011339;28;20052;-72
2022/03/19 03:23:37;;;;;;;18.70;9.82;;;;;;;-0.85;100.00;104342.69;5028670;28;20029;-72
2022/03/19 03:26:03;;;;;;;35.80;10.65;;;;;;;-0.72;100.00;104354.06;5011189;28;20037;-71
2022/03/19 03:28:28;;;;;;;26.23;9.27;;;;;;;-0.73;100.00;104354.91;4994714;28;20429;-71
2022/03/19 03:30:53;;;;;;;29.90;10.50;;;;;;;-0.72;100.00;104353.19;5010878;28;20044;-72
2022/03/19 03:33:19;;;;;;;25.30;10.55;;;;;;;-0.70;100.00;104351.44;5010713;28;20018;-71
2022/03/19 03:35:44;;;;;;;39.72;10.27;;;;;;;-0.77;100.00;104340.06;5028531;28;20041;-71
2022/03/19 03:38:10;;;;;;;24.50;9.73;;;;;;;-0.79;100.00;104343.56;5010935;28;20080;-71
2022/03/19 03:40:37;;;;;;;38.20;11.00;;;;;;;-0.90;100.00;104336.56;5028290;28;20133;-72
2022/03/19 03:43:02;;;;;;;30.05;10.38;;;;;;;-0.97;100.00;104341.81;5010653;28;20597;-72
2022/03/19 03:45:30;;;;;;;32.40;8.60;;;;;;;-0.99;100.00;104323.44;5010548;28;20048;-72
2022/03/19 03:47:55;;;;;;;23.85;7.78;;;;;;;-0.98;100.00;104325.22;5028097;28;20096;-72
2022/03/19 03:50:21;;;;;;;26.58;9.07;;;;;;;-0.94;100.00;104332.19;5010304;28;20049;-72
2022/03/19 03:52:46;;;;;;;42.60;8.75;;;;;;;-1.03;100.00;104336.56;5010748;28;20029;-72
2022/03/19 03:55:13;;;;;;;36.55;9.88;;;;;;;-1.03;100.00;104344.44;5027795;28;20037;-71
2022/03/19 03:57:39;;;;;;;30.52;10.82;;;;;;;-1.09;100.00;104347.94;5028353;28;20470;-72
2022/03/19 04:00:05;;;;;;;34.70;11.23;;;;;;;-1.07;100.00;104336.56;5027671;28;20033;-72
2022/03/19 04:02:37;;;;;;;25.20;9.35;;;;;;;-1.11;100.00;104339.19;5027885;28;20033;-72
2022/03/19 04:05:04;;;;;;;36.83;10.60;;;;;;;-1.16;100.00;104351.44;5010173;28;20033;-72
2022/03/19 04:07:30;;;;;;;27.25;9.43;;;;;;;-1.15;100.00;104347.91;5027735;28;20037;-72
2022/03/19 04:09:56;;;;;;;27.42;10.13;;;;;;;-1.15;100.00;104348.81;5009749;28;20037;-71
2022/03/19 04:12:22;;;;;;;28.05;9.73;;;;;;;-1.07;100.00;104356.69;5027987;28;20034;-72
2022/03/19 04:14:49;;;;;;;33.78;9.48;;;;;;;-0.99;100.00;104362.78;4993178;28;20068;-72
2022/03/19 04:17:14;;;;;;;30.58;8.25;;;;;;;-0.99;100.00;104360.16;5027626;28;20029;-72
2022/03/19 04:19:40;;;;;;;30.63;10.00;;;;;;;-1.02;100.00;104344.44;4992739;28;20132;-71
2022/03/19 04:22:05;;;;;;;20.77;8.68;;;;;;;-1.09;100.00;104348.81;4993257;28;20033;-72
2022/03/19 04:24:30;;;;;;;34.47;10.77;;;;;;;-1.09;100.00;104346.19;5009610;28;20037;-71
2022/03/19 04:26:57;;;;;;;27.80;9.70;;;;;;;-1.17;100.00;104347.03;5010214;28;20026;-72
2022/03/19 04:29:22;;;;;;;21.92;8.07;;;;;;;-1.18;100.00;104342.69;5027070;28;20288;-72
2022/03/19 04:31:47;;;;;;;36.50;9.23;;;;;;;-1.08;100.00;104349.66;4993583;28;20109;-72
2022/03/19 04:34:13;;;;;;;25.07;9.47;;;;;;;-1.03;100.00;104349.66;5027208;28;20044;-72
2022/03/19 04:36:38;;;;;;;37.28;9.50;;;;;;;-0.98;100.00;104345.34;5027322;28;20287;-72
2022/03/19 04:39:06;;;;;;;27.95;8.27;;;;;;;-1.06;100.00;104347.94;5027138;28;20041;-73
2022/03/19 04:41:33;;;;;;;22.60;9.18;;;;;;;-1.16;100.00;104343.56;4993369;28;20033;-71
2022/03/19 04:43:58;;;;;;;28.63;8.85;;;;;;;-1.18;100.00;104343.53;4992966;28;20087;-72
2022/03/19 04:46:24;;;;;;;30.42;8.90;;;;;;;-1.15;100.00;104346.19;5009329;28;20057;-72
2022/03/19 04:48:50;;;;;;;27.80;8.73;;;;;;;-1.21;100.00;104343.56;5009083;28;20029;-71
2022/03/19 04:51:17;;;;;;;;;;;;;;;-1.24;100.00;104347.91;4993429;28;20029;-71
2022/03/19 04:53:53;;;;;;;31.17;7.65;;;;;;;-1.24;100.00;104348.81;5026766;28;19948;-72
2022/03/19 04:56:20;;;;;;;22.20;8.60;;;;;;;-1.26;100.00;104345.31;5009134;28;20040;-72
2022/03/19 04:58:45;;;;;;;30.73;9.60;;;;;;;-1.29;100.00;104346.16;5008933;28;20034;-72
2022/03/19 05:01:12;;;;;;;28.52;10.02;;;;;;;-1.29;100.00;104348.78;5009182;28;20029;-71
2022/03/19 05:03:38;;;;;;;21.75;8.50;;;;;;;-1.28;100.00;104349.66;5009048;28;20390;-71
2022/03/19 05:06:03;;;;;;;21.27;6.95;;;;;;;-1.37;100.00;104355.75;5026243;28;20398;-72
2022/03/19 05:08:28;;;;;;;18.48;6.75;;;;;;;-1.41;100.00;104356.59;5009107;28;20029;-71
2022/03/19 05:11:12;;;;;;;23.73;7.37;;;;;;;-1.28;100.00;104347.91;5026675;28;20041;-72
2022/03/19 05:13:53;;;;;;;18.77;7.13;;;;;;;-1.28;100.00;104347.03;5008860;28;20275;-72
2022/03/19 05:16:18;;;;;;;24.38;7.28;;;;;;;-1.15;100.00;104364.56;5026428;28;20033;-72
2022/03/19 05:18:44;;;;;;;19.48;6.63;;;;;;;-1.07;100.00;104370.66;5008877;28;20029;-72
2022/03/19 05:21:13;;;;;;;27.98;8.13;;;;;;;-1.05;100.00;104373.31;5008607;28;20567;-72
2022/03/19 05:23:42;;;;;;;37.10;10.35;;;;;;;-1.04;100.00;104372.41;4992326;28;20052;-72
2022/03/19 05:26:07;;;;;;;21.83;6.45;;;;;;;-1.06;100.00;104382.03;4992451;28;20087;-72
2022/03/19 05:28:32;;;;;;;18.45;6.10;;;;;;;-1.10;100.00;104369.78;5008443;28;20036;-72
2022/03/19 05:30:58;;;;;;;31.47;8.07;;;;;;;-1.09;100.00;104368.91;4992382;28;20499;-72
2022/03/19 05:34:29;;;;;;;19.77;7.18;;;;;;;-1.12;100.00;104364.53;5008577;28;20280;-72
2022/03/19 05:36:10;;;;;;;21.40;6.95;;;;;;;-1.10;100.00;104361.91;5026189;28;20033;-72
2022/03/19 05:38:37;;;;;;;21.13;7.38;;;;;;;-1.14;100.00;104353.19;4992257;28;20124;-72
2022/03/19 05:41:02;;;;;;;36.00;9.68;;;;;;;-1.03;100.00;104362.78;5026033;28;20120;-72
2022/03/19 05:43:27;;;;;;;37.50;8.25;;;;;;;-0.96;100.00;104365.44;5026119;28;20037;-72
2022/03/19 05:45:53;;;;;;;17.55;6.68;;;;;;;-0.95;100.00;104361.94;5025759;28;20033;-72
2022/03/19 05:48:18;;;;;;;28.17;6.83;;;;;;;-0.83;100.00;104362.81;4987905;28;20129;-72
2022/03/19 05:50:43;;;;;;;20.63;6.85;;;;;;;-0.80;100.00;104361.03;5023157;28;20929;-72
2022/03/19 05:53:09;;;;;;;27.67;8.20;;;;;;;-0.77;100.00;104376.81;5025606;28;20029;-72
2022/03/19 05:55:34;;;;;;;19.17;7.78;;;;;;;-0.77;100.00;104382.06;5007861;28;20291;-72
2022/03/19 05:58:00;;;;;;;24.23;8.90;;;;;;;-0.65;100.00;104370.69;5010256;28;20037;-71
2022/03/19 06:00:25;;;;;;;34.38;10.07;;;;;;;-0.59;100.00;104380.28;5008007;28;20041;-71
2022/03/19 06:02:50;;;;;;;33.73;8.43;;;;;;;-0.54;100.00;104382.06;5008466;28;20402;-72
2022/03/19 06:05:16;;;;;;;22.37;8.67;;;;;;;-0.47;100.00;104380.28;5008520;28;20342;-71
2022/03/19 06:07:41;;;;;;;29.02;7.93;;;;;;;-0.43;100.00;104382.88;5008420;28;20077;-72
2022/03/19 06:10:08;;;;;;;27.77;9.25;;;;;;;-0.37;100.00;104381.16;5007901;28;20041;-71
2022/03/19 06:12:33;;;;;;;23.65;7.38;;;;;;;-0.30;100.00;104385.53;4991621;28;20633;-72
2022/03/19 06:15:00;;;;;;;23.90;9.35;;;;;;;-0.22;100.00;104392.47;5007955;28;20568;-72
2022/03/19 06:17:26;;;;;;;21.20;8.30;;;;;;;-0.01;100.00;104396.81;5008750;28;20022;-72
2022/03/19 06:19:54;;;;;;;26.02;9.15;;;;;;;1.19;100.00;104405.81;4995433;28;20073;-72
2022/03/19 06:22:19;;;;;;;21.40;7.57;;;;;;;1.85;100.00;104415.75;5012276;28;20029;-72
2022/03/19 06:24:44;;;;;;;21.50;8.07;;;;;;;2.05;100.00;104410.28;5029475;28;20035;-72
2022/03/19 06:27:10;;;;;;;26.23;8.90;;;;;;;1.89;100.00;104396.38;5029748;28;20115;-72
2022/03/19 06:29:36;;;;;;;25.93;7.67;;;;;;;1.64;100.00;104382.63;5011765;28;20092;-72
2022/03/19 06:32:02;;;;;;;31.17;9.70;;;;;;;1.57;100.00;104376.53;5012177;28;20119;-72
2022/03/19 06:34:30;;;;;;;22.27;8.80;;;;;;;1.54;100.00;104371.28;5029252;28;20053;-72
2022/03/19 06:39:40;;;;;;;25.20;10.30;;;;;;;2.88;100.00;104386.31;5029135;28;20041;-72
2022/03/19 06:42:06;;;;;;;20.40;8.33;;;;;;;3.87;100.00;104387.28;5011844;28;20028;-72
2022/03/19 06:44:33;;;;;;;31.77;9.85;;;;;;;4.20;100.00;104377.78;4995119;28;20037;-72
2022/03/19 06:46:59;;;;;;;26.67;9.82;;;;;;;4.60;100.00;104385.72;5011609;28;20021;-72
2022/03/19 06:49:26;;;;;;;23.25;10.00;;;;;;;5.46;100.00;104380.97;5028748;28;20033;-72
2022/03/19 06:51:51;;;;;;;26.75;10.50;;;;;;;5.85;100.00;104385.25;5028848;28;20033;-72
2022/03/19 06:54:16;;;;;;;20.80;7.87;;;;;;;6.06;100.00;104387.34;5028409;28;20094;-72
2022/03/19 06:56:42;;;;;;;17.83;8.17;;;;;;;6.18;100.00;104372.84;5011359;28;20621;-72
2022/03/19 06:59:07;;;;;;;28.63;10.03;;;;;;;6.15;100.00;104351.69;5011085;28;20119;-72
2022/03/19 07:01:36;;;;;;;23.70;7.90;;;;;;;6.19;100.00;104350.69;5029086;28;20537;-72
2022/03/19 07:04:02;;;;;;;21.50;9.13;;;;;;;6.25;100.00;104336.38;5029002;28;20033;-72
2022/03/19 07:06:27;;;;;;;19.27;8.10;;;;;;;6.49;100.00;104334.75;5011251;28;20101;-72
2022/03/19 07:08:52;;;;;;;20.60;8.33;;;;;;;6.71;100.00;104324.31;4994797;28;20568;-72
2022/03/19 07:11:18;;;;;;;32.50;9.73;;;;;;;6.61;100.00;104307.81;5028558;28;20037;-72
2022/03/19 07:13:43;;;;;;;20.13;7.27;;;;;;;6.74;100.00;104300.31;5028679;28;20056;-72
2022/03/19 07:16:09;;;;;;;25.20;8.97;;;;;;;6.63;100.00;104268.81;5028816;28;20914;-72
2022/03/19 07:18:34;;;;;;;15.57;7.33;;;;;;;6.61;98.79;104260.03;5010934;28;20101;-72
2022/03/19 07:21:00;;;;;;;28.53;9.07;;;;;;;6.26;97.14;104251.41;5010762;28;20388;-71
2022/03/19 07:23:25;;;;;;;20.23;7.23;;;;;;;6.69;97.08;104257.97;5011077;28;20037;-72
2022/03/19 07:25:50;;;;;;;22.83;6.47;;;;;;;6.99;95.63;104257.84;5010695;28;20045;-72
2022/03/19 07:28:18;;;;;;;23.40;7.40;;;;;;;7.19;93.61;104251.84;5028036;28;20048;-72
2022/03/19 07:30:44;;;;;;;21.30;6.60;;;;;;;7.13;92.00;104226.34;5028190;28;20034;-72
2022/03/19 07:33:11;;;;;;;26.63;7.07;;;;;;;7.25;91.36;104217.06;5010884;28;20785;-72
2022/03/19 07:35:38;;;;;;;19.42;6.07;;;;;;;7.19;90.47;104210.19;5010414;28;20521;-72
2022/03/19 07:38:06;;;;;;;15.57;6.22;;;;;;;7.43;89.14;104206.69;5010913;28;20474;-72
2022/03/19 07:43:19;;;;;;;18.17;5.38;;;;;;;7.50;87.17;104190.44;5028128;28;20112;-72
2022/03/19 07:45:44;;;;;;;14.45;5.10;;;;;;;7.75;86.41;104189.47;5010529;28;20064;-73
2022/03/19 07:48:10;;;;;;;14.65;4.63;;;;;;;6.75;85.40;104124.97;5010377;28;20084;-72
2022/03/19 07:50:36;;;;;;;17.30;5.40;;;;;;;7.89;88.41;104248.38;5027975;28;20116;-73
2022/03/19 07:53:03;;;;;;;15.55;3.72;;;;;;;7.80;84.68;104176.88;5010260;28;20036;-73
2022/03/19 07:55:28;;;;;;;15.05;3.47;;;;;;;8.16;84.34;104197.63;5028012;28;20793;-73
2022/03/19 07:57:54;;;;;;;18.27;4.97;;;;;;;8.59;81.67;104172.78;5010152;28;20136;-73
2022/03/19 08:00:19;;;;;;;10.97;3.10;;;;;;;8.76;80.44;104160.53;5010043;28;20033;-72
2022/03/19 08:02:45;;;;;;;13.00;2.70;;;;;;;9.21;78.18;104149.59;5010101;28;20033;-72
2022/03/19 08:05:11;;;;;;;16.47;4.47;;;;;;;9.12;76.63;104119.81;5010194;28;20075;-72
2022/03/19 08:07:37;;;;;;;11.55;2.95;;;;;;;9.39;75.47;104117.66;5010013;28;20353;-72
2022/03/19 08:10:08;;;;;;;16.13;3.30;;;;;;;9.61;73.88;104070.34;4993259;28;20337;-72
2022/03/19 08:12:35;;;;;;;11.43;3.33;;;;;;;10.31;72.60;104084.66;5027845;28;20124;-72
2022/03/19 08:15:02;;;;;;;11.35;2.60;;;;;;;10.35;70.63;104034.63;5010008;28;20025;-72
2022/03/19 08:17:28;;;;;;;12.00;2.50;;;;;;;10.57;68.83;103997.78;5027752;28;20931;-72
2022/03/19 08:19:57;;;;;;;12.27;2.20;;;;;;;11.07;66.69;103953.16;5027394;28;20057;-71
2022/03/19 08:22:23;;;;;;;13.75;3.20;;;;;;;11.46;64.16;103911.69;5027716;28;20510;-72
2022/03/19 08:24:49;;;;;;;11.77;3.80;;;;;;;11.33;62.05;103831.31;5027304;28;20017;-72
2022/03/19 08:27:14;;;;;;;10.23;3.28;;;;;;;11.60;62.12;103929.59;5009689;28;20048;-71
2022/03/19 08:29:39;;;;;;;7.53;1.70;;;;;;;10.73;60.89;103764.47;5009427;28;20655;-71
2022/03/19 08:32:05;;;;;;;9.53;2.07;;;;;;;10.68;60.49;103759.41;5027615;28;20128;-72
2022/03/19 08:34:30;;;;;;;9.93;2.35;;;;;;;10.11;61.75;103813.34;5009298;28;20037;-72
2022/03/19 08:36:56;;;;;;;7.47;2.07;;;;;;;10.83;62.96;103971.44;5009578;28;20095;-71
2022/03/19 08:42:06;;;;;;;11.60;3.60;;;;;;;11.41;58.87;103786.22;5026877;28;20132;-72
2022/03/19 08:44:31;;;;;;;6.47;2.00;;;;;;;11.17;59.42;103819.81;5009159;28;20108;-72
2022/03/19 08:46:56;;;;;;;5.40;1.93;;;;;;;11.01;62.55;103982.94;5009526;28;20033;-72
2022/03/19 08:49:22;;;;;;;7.27;2.03;;;;;;;11.69;61.35;103979.03;5008957;28;20514;-71
2022/03/19 08:51:47;;;;;;;4.00;1.57;;;;;;;12.59;58.90;103903.81;5026955;28;20034;-71
2022/03/19 08:54:19;;;;;;;17.60;3.27;;;;;;;12.25;56.60;103750.59;5026809;28;20168;-71
2022/03/19 08:56:48;;;;;;;9.95;2.33;;;;;;;12.46;56.69;103818.00;5009222;28;20076;-72
2022/03/19 08:59:16;;;;;;;9.82;1.73;;;;;;;11.18;56.32;103634.31;5026669;28;20041;-72
2022/03/19 09:01:42;;;;;;;5.38;2.15;;;;;;;9.66;59.56;103717.97;5026602;28;20048;-72
2022/03/19 09:04:09;;;;;;;9.82;2.10;;;;;;;10.13;60.83;103863.97;5008819;28;20099;-71
2022/03/19 09:06:34;;;;;;;5.78;1.60;;;;;;;8.63;63.07;103829.91;5008928;28;20037;-71
2022/03/19 09:09:02;;;;;;;10.63;3.17;;;;;;;9.47;64.32;104014.16;5026485;28;20068;-71
2022/03/19 09:11:29;;;;;;;16.08;3.47;;;;;;;9.76;63.47;103950.47;5008621;28;20034;-71
2022/03/19 09:13:54;;;;;;;8.43;1.70;;;;;;;11.16;62.46;104032.84;5008517;28;20021;-71
2022/03/19 09:16:20;;;;;;;6.50;2.00;;;;;;;11.84;59.36;103890.59;5026612;28;20060;-71
2022/03/19 09:18:46;;;;;;;7.57;1.77;;;;;;;11.96;58.12;103845.31;5026192;28;20087;-71
2022/03/19 09:21:12;;;;;;;9.25;2.15;;;;;;;13.03;56.40;103862.50;5008492;28;20156;-72
2022/03/19 09:23:37;;;;;;;9.63;1.90;;;;;;;13.01;54.52;103749.09;5026416;28;20439;-71
2022/03/19 09:26:03;;;;;;;7.00;3.03;;;;;;;12.71;53.81;103627.88;5008576;28;20044;-71
2022/03/19 09:28:29;;;;;;;5.28;1.83;;;;;;;12.55;55.24;103768.31;5025620;28;20100;-71
2022/03/19 09:30:54;;;;;;;5.87;2.00;;;;;;;11.66;54.02;103529.59;5025998;28;20061;-71
2022/03/19 09:33:20;;;;;;;9.03;1.97;;;;;;;10.10;57.55;103667.44;5026244;28;20044;-71
2022/03/19 09:35:46;;;;;;;8.60;1.60;;;;;;;10.83;59.21;103896.59;5008309;28;20041;-71
2022/03/19 09:38:13;;;;;;;;;;;;;;;10.62;57.68;103743.72;5026763;28;20028;-71
2022/03/19 09:40:39;;;;;;;5.28;1.45;;;;;;;9.65;59.21;103725.13;5025646;28;19920;-71
2022/03/19 09:43:04;;;;;;;4.45;1.60;;;;;;;9.59;60.29;103799.28;4992006;28;20033;-71
2022/03/19 09:45:30;;;;;;;7.82;2.00;;;;;;;11.18;58.89;103909.75;5008182;28;20044;-71
2022/03/19 09:47:56;;;;;;;9.27;2.57;;;;;;;10.97;58.35;103827.16;5025927;28;20025;-72
2022/03/19 09:50:22;;;;;;;7.15;2.65;;;;;;;11.18;57.25;103784.06;5008269;28;20388;-71
2022/03/19 09:52:53;;;;;;;5.30;1.73;;;;;;;11.35;56.17;103709.00;5025675;28;20037;-72
2022/03/19 09:55:18;;;;;;;7.50;1.40;;;;;;;10.60;56.89;103675.28;5025653;28;20033;-73
2022/03/19 09:57:45;;;;;;;3.88;1.70;;;;;;;10.28;58.77;103831.13;5025802;28;20394;-72
2022/03/19 10:00:11;;;;;;;;;;;;;;;9.78;58.74;103735.13;5008413;28;20041;-72
2022/03/19 10:02:56;;;;;;;6.65;1.52;;;;;;;11.23;58.47;103899.66;5025900;28;19949;-72
2022/03/19 10:10:53;;;;;;;4.30;1.50;;;;;;;13.00;54.03;103789.44;5025607;28;20037;-72
2022/03/19 10:13:18;;;;;;;8.30;1.92;;;;;;;11.43;54.04;103587.31;5025683;28;20136;-73
2022/03/19 10:15:44;;;;;;;4.63;1.30;;;;;;;12.99;53.28;103760.88;5036553;28;20120;-72
2022/03/19 10:18:10;;;;;;;4.30;1.55;;;;;;;12.48;52.93;103657.13;5020038;28;20018;-72
2022/03/19 10:20:37;;;;;;;7.05;1.50;;;;;;;11.68;52.68;103531.19;5007114;28;20045;-72
2022/03/19 10:23:04;;;;;;;8.32;2.42;;;;;;;12.49;54.33;103792.81;5020645;28;20420;-72
2022/03/19 10:25:30;;;;;;;2.17;1.20;;;;;;;13.52;51.91;103732.19;5045054;28;20091;-72
2022/03/19 10:28:00;;;;;;;9.75;2.10;;;;;;;12.87;52.83;103701.75;5045216;28;20036;-72
2022/03/19 10:30:33;;;;;;;6.43;1.58;;;;;;;12.91;52.19;103659.53;5041935;28;20049;-72
2022/03/19 10:32:59;;;;;;;3.00;1.50;;;;;;;11.73;52.78;103514.84;5007613;28;20029;-72
2022/03/19 10:35:29;;;;;;;3.50;1.50;;;;;;;12.53;53.13;103715.78;5025410;28;20068;-72
2022/03/19 10:37:56;;;;;;;4.50;1.60;;;;;;;12.86;53.31;103745.66;5007368;28;20419;-72
2022/03/19 10:40:22;;;;;;;4.38;1.33;;;;;;;14.15;51.39;103767.91;5025153;28;20021;-72
2022/03/19 10:42:51;;;;;;;;;;;;;;;14.98;49.13;103662.16;5025716;28;20033;-73
2022/03/19 10:45:21;;;;;;;3.95;1.33;;;;;;;13.54;48.94;103413.53;5025102;28;20393;-73
2022/03/19 10:47:48;;;;;;;2.58;1.20;;;;;;;10.64;52.83;103356.22;5007779;28;20482;-72
2022/03/19 10:50:24;;;;;;;4.60;1.23;;;;;;;12.57;52.77;103685.97;5025194;28;20676;-72
2022/03/19 10:52:52;;;;;;;3.83;1.50;;;;;;;12.68;51.37;103565.47;5025395;28;20159;-72
2022/03/19 10:55:19;;;;;;;3.00;1.65;;;;;;;10.87;52.88;103414.38;5024822;28;20029;-73
2022/03/19 10:57:45;;;;;;;3.25;1.45;;;;;;;12.11;53.46;103714.97;5007581;28;20025;-72
2022/03/19 11:00:12;;;;;;;3.78;1.27;;;;;;;13.02;50.81;103538.94;5024801;28;20414;-72
2022/03/19 11:02:44;;;;;;;3.47;1.17;;;;;;;12.93;50.43;103547.66;5025333;28;20933;-72
2022/03/19 11:05:11;;;;;;;4.85;1.73;;;;;;;12.24;50.40;103422.09;5010568;28;20037;-72
2022/03/19 11:07:42;;;;;;;3.22;1.40;;;;;;;13.01;50.61;103574.75;5029008;28;20368;-72
2022/03/19 11:10:08;;;;;;;4.28;1.30;;;;;;;11.66;51.00;103367.25;5010897;28;20037;-72
2022/03/19 11:12:34;;;;;;;4.55;1.30;;;;;;;11.25;52.87;103491.22;5028693;28;20061;-72
2022/03/19 11:15:03;;;;;;;2.03;1.17;;;;;;;12.06;52.59;103602.81;5010847;28;20549;-72
2022/03/19 11:17:36;;;;;;;3.53;1.52;;;;;;;11.29;53.55;103570.31;5011275;28;20104;-72
2022/03/19 11:20:11;;;;;;;4.03;1.35;;;;;;;13.64;51.46;103736.66;4994263;28;20111;-73
2022/03/19 11:22:46;;;;;;;3.58;1.52;;;;;;;12.06;50.35;103367.16;5039922;28;20039;-72
2022/03/19 11:25:26;;;;;;;2.70;1.65;;;;;;;10.90;51.55;103293.06;5030407;28;20522;-72
2022/03/19 11:28:03;;;;;;;3.97;1.55;;;;;;;11.28;52.29;103469.63;5048303;28;20045;-72
2022/03/19 11:30:34;;;;;;;3.83;1.35;;;;;;;11.83;53.30;103685.44;5030346;28;20117;-72
2022/03/19 11:33:15;;;;;;;7.65;2.30;;;;;;;10.81;52.57;103396.06;5030597;28;20068;-72